• Join FlightAware (Why Join?)
  • Login
  • US Flag 
01:17AM EDT


 

Airport Tracker/Info


-or-


 

Live Flight TrackerFlight Track Log ✈ SWA429 ✈ 29-Apr-2013 ✈ KMDW - KGSP

Flight Track Log - Related Links

Times and Time Zones

All times are in EDT time to prevent confusion due to time zone crossing. See the SWA429 flight status page for this flight to view local times or setup timezone preferences in your user account.

Time Position Orientation Groundspeed Altitude Reporting Facility
EDT Latitude Longitude Course Direction KTS MPH feet Rate Location/Type
11:43AM 41.7500 -87.7833 146° Southeast 164 189 2,800  Level Chicago TRACON
11:45AM 41.6156 -87.7039 156° South 268 308 8,500 2,580 Climbing Chicago Center
11:46AM 41.5422 -87.6528 152° Southeast 293 337 11,300 2,820 Climbing Chicago Center
11:47AM 41.4572 -87.5936 152° Southeast 336 387 14,400 3,180 Climbing Chicago Center
11:48AM 41.3701 -87.3797 146° Southeast  Level Estimated
11:48AM 41.3583 -87.5608 166° South 365 420 17,900  Level Chicago Center
11:49AM 41.2547 -87.5433 173° South 372 428 21,200 2,460 Climbing Chicago Center
11:50AM 41.1469 -87.5186 170° South 388 447 23,000 2,220 Climbing Chicago Center
11:51AM 41.0369 -87.4897 169° South 399 459 25,900 2,880 Climbing Chicago Center
11:52AM 40.9106 -87.4544 168° South 390 449 29,000 1,500 Climbing Chicago Center
11:53AM 40.8033 -87.4281 169° South 391 450 29,000  Level Chicago Center
11:54AM 40.6975 -87.3997 169° South 390 449 29,000  Level Chicago Center
11:55AM 40.5914 -87.3714 169° South 390 449 29,000  Level Chicago Center
11:56AM 40.4853 -87.3425 168° South 391 450 29,000  Level Chicago Center
11:57AM 40.3678 -87.2956 163° South 393 452 29,000  Level Chicago Center
11:58AM 40.2622 -87.2464 160° South 399 459 29,000  Level Chicago Center
11:59AM 40.1575 -87.1961 160° South 400 460 29,000  Level Chicago Center
12:00PM 40.0689 -87.1544 160° South 399 459 29,000  Level Indianapolis Center
12:01PM 39.9653 -87.1011 158° South 401 461 29,000  Level Indianapolis Center
12:02PM 39.8714 -87.0197 146° Southeast 404 465 29,000  Level Indianapolis Center
12:03PM 39.7772 -86.9411 147° Southeast 401 461 29,000  Level Indianapolis Center
12:04PM 39.6822 -86.8617 147° Southeast 403 464 29,000  Level Indianapolis Center
12:05PM 39.5897 -86.7781 145° Southeast 406 467 29,000  Level Indianapolis Center
12:06PM 39.4894 -86.6664 139° Southeast 409 471 29,000  Level Indianapolis Center
12:07PM 39.4028 -86.5728 140° Southeast 408 470 29,000  Level Indianapolis Center
12:08PM 39.3153 -86.4781 140° Southeast 410 472 29,000  Level Indianapolis Center
12:09PM 39.2272 -86.3825 140° Southeast 412 474 29,000  Level Indianapolis Center
12:10PM 39.1394 -86.2869 140° Southeast 413 475 29,000  Level Indianapolis Center
12:11PM 39.0519 -86.1928 140° Southeast 410 472 29,000  Level Indianapolis Center
12:12PM 38.9506 -86.0844 140° Southeast 407 468 29,000  Level Indianapolis Center
12:13PM 38.8700 -85.9994 141° Southeast 406 467 29,000  Level Indianapolis Center
12:14PM 38.7822 -85.9069 141° Southeast 407 468 29,000  Level Indianapolis Center
12:15PM 38.6881 -85.8069 140° Southeast 404 465 29,000  Level Indianapolis Center
12:16PM 38.6081 -85.7219 140° Southeast 405 466 29,000  Level Indianapolis Center
12:17PM 38.5211 -85.6297 140° Southeast 404 465 29,000  Level Indianapolis Center
12:18PM 38.4172 -85.5206 141° Southeast 401 461 29,000  Level Indianapolis Center
12:20PM 38.3289 -85.4306 141° Southeast 404 465 29,000  Level Indianapolis Center
12:21PM 38.2442 -85.3389 140° Southeast 399 459 29,000  Level Indianapolis Center
12:22PM 38.1597 -85.2481 140° Southeast 396 456 29,000  Level Indianapolis Center
12:23PM 38.0642 -85.1564 143° Southeast 405 466 29,000  Level Indianapolis Center
12:24PM 37.9772 -85.0656 141° Southeast 405 466 29,000  Level Indianapolis Center
12:25PM 37.8900 -84.9769 141° Southeast 404 465 29,000  Level Indianapolis Center
12:26PM 37.8031 -84.8858 140° Southeast 404 465 29,000  Level Indianapolis Center
12:27PM 37.7011 -84.7825 141° Southeast 403 464 29,000  Level Indianapolis Center
12:28PM 37.6144 -84.6933 141° Southeast 402 463 29,000  Level Indianapolis Center
12:29PM 37.5269 -84.6053 141° Southeast 401 461 29,000  Level Indianapolis Center
12:30PM 37.4400 -84.5175 141° Southeast 401 461 29,000  Level Indianapolis Center
12:31PM 37.3508 -84.4272 141° Southeast 407 468 29,000  Level Indianapolis Center
12:32PM 37.2697 -84.3317 137° Southeast 398 458 29,000  Level Indianapolis Center
12:33PM 37.1742 -84.2175 136° Southeast 404 465 29,000  Level Indianapolis Center
12:34PM 37.0933 -84.1203 136° Southeast 404 465 29,000  Level Indianapolis Center
12:35PM 37.0128 -84.0236 136° Southeast 401 461 29,000 -240 Level Indianapolis Center
12:36PM 36.9303 -83.9272 137° Southeast 407 468 28,600 -660 Descending Indianapolis Center
12:37PM 36.8494 -83.8314 136° Southeast 401 461 27,700 -1,260 Descending Indianapolis Center
12:38PM 36.7681 -83.7336 136° Southeast 404 465 26,000 -1,680 Descending Indianapolis Center
12:39PM 36.6756 -83.6169 135° Southeast 407 468 24,300 -1,020 Descending Indianapolis Center
12:40PM 36.6014 -83.5125 131° Southeast 405 466 24,000 -180 Descending Indianapolis Center
12:41PM 36.5242 -83.4061 132° Southeast 411 473 24,000  Level Indianapolis Center
12:42PM 36.4733 -83.3392 133° Southeast 409 471 24,000  Level Atlanta Center
12:43PM 36.3914 -83.2392 135° Southeast 409 471 24,000  Level Atlanta Center
12:44PM 36.3033 -83.1500 141° Southeast 409 471 24,000  Level Atlanta Center
12:45PM 36.2128 -83.0608 142° Southeast 409 471 24,000 -540 Level Atlanta Center
12:46PM 36.1244 -82.9719 141° Southeast 409 471 23,000 -1,020 Descending Atlanta Center
12:47PM 36.0342 -82.8833 142° Southeast 414 476 22,000 -960 Descending Atlanta Center
12:48PM 35.9456 -82.7947 141° Southeast 414 476 21,100 -1,020 Descending Atlanta Center
12:49PM 35.8550 -82.7089 142° Southeast 414 476 20,000 -1,080 Descending Atlanta Center
12:50PM 35.7686 -82.6208 140° Southeast 409 471 19,000 -1,020 Descending Atlanta Center
12:51PM 35.6778 -82.5331 142° Southeast 396 456 18,000 -1,440 Descending Atlanta Center
12:52PM 35.5933 -82.4503 141° Southeast 396 456 16,200 -2,100 Descending Atlanta Center
12:53PM 35.5108 -82.3703 142° Southeast 391 450 13,800 -2,400 Descending Atlanta Center
12:54PM 35.4283 -82.2956 144° Southeast 373 429 11,400 -1,500 Descending Atlanta Center
12:55PM 35.3528 -82.2639 161° South 303 349 10,900 -840 Descending Atlanta Center
12:56PM 35.3119 -82.1783 120° Southeast 282 325 9,800 -1,260 Descending Atlanta Center
12:57PM 35.2406 -82.1519 163° South 271 312 8,400 -1,260 Descending Atlanta Center
12:58PM 35.1753 -82.1178 157° South 264 304 7,300 -1,140 Descending Atlanta Center
12:59PM 35.1386 -82.0400 120° Southeast 254 292 6,200 -660 Descending Atlanta Center
01:00PM 35.1083 -81.9669 117° Southeast 244 281 6,000 -120 Descending Atlanta Center
01:01PM 35.1367 -81.9156 56° Northeast 175 201 6,000 6,480 Level Atlanta Center
01:02PM 35.1836 -81.8686 39° Northeast 180 207 19,000 -1,020 Climbing Atlanta Center
01:03PM 35.2011 -81.9061 300° West 88 101 4,000 -7,500 Descending Atlanta Center
01:04PM 35.1769 -81.9653 243° Southwest 93 107 4,000  Level Atlanta Center
01:05PM 35.1528 -82.0167 240° Southwest 159 183 4,000  Level Atlanta Center
01:06PM 35.1158 -82.0558 221° Southwest 180 207 4,000 -300 Level Atlanta Center
01:07PM 35.0747 -82.0872 212° Southwest 180 207 3,500 -480 Descending Atlanta Center
01:08PM 35.0336 -82.1211 214° Southwest 180 207 3,100 -420 Descending Atlanta Center
01:10PM 34.9253 -82.2167 180° South  Level FlightAware Approximate
01:17PM 34.8957 -82.2189 180° South  Level Estimated
01:18PM 34.8957 -82.2189 180° South  Level Estimated
01:19PM 34.8957 -82.2189 180° South  Level Estimated
01:20PM 34.8957 -82.2189 180° South  Level Estimated